sensor_id;sensor_type;location;lat;lon;timestamp;temperature;humidity
1590;DHT22;788;48.720;9.158;2022-09-09T00:01:25;15.20;99.90
1590;DHT22;788;48.720;9.158;2022-09-09T00:04:00;15.20;99.90
1590;DHT22;788;48.720;9.158;2022-09-09T00:06:30;15.20;99.90
1590;DHT22;788;48.720;9.158;2022-09-09T00:09:02;15.10;99.90
1590;DHT22;788;48.720;9.158;2022-09-09T00:11:39;15.10;99.90
1590;DHT22;788;48.720;9.158;2022-09-09T00:14:16;15.10;99.90
1590;DHT22;788;48.720;9.158;2022-09-09T00:16:50;15.10;99.90
1590;DHT22;788;48.720;9.158;2022-09-09T00:19:24;15.10;99.90
1590;DHT22;788;48.720;9.158;2022-09-09T00:22:02;15.10;99.90
1590;DHT22;788;48.720;9.158;2022-09-09T00:24:40;15.20;99.90
1590;DHT22;788;48.720;9.158;2022-09-09T00:27:13;15.20;99.90
1590;DHT22;788;48.720;9.158;2022-09-09T00:29:45;15.20;99.90
1590;DHT22;788;48.720;9.158;2022-09-09T00:32:16;15.20;99.90
1590;DHT22;788;48.720;9.158;2022-09-09T00:34:50;15.30;99.90
1590;DHT22;788;48.720;9.158;2022-09-09T00:37:19;15.30;99.90
1590;DHT22;788;48.720;9.158;2022-09-09T00:39:48;15.40;99.90
1590;DHT22;788;48.720;9.158;2022-09-09T00:42:19;15.40;99.90
1590;DHT22;788;48.720;9.158;2022-09-09T00:44:53;15.50;99.90
1590;DHT22;788;48.720;9.158;2022-09-09T00:47:38;15.50;99.90
1590;DHT22;788;48.720;9.158;2022-09-09T00:50:24;15.50;99.90
1590;DHT22;788;48.720;9.158;2022-09-09T00:53:02;15.70;99.90
1590;DHT22;788;48.720;9.158;2022-09-09T00:55:40;15.70;99.90
1590;DHT22;788;48.720;9.158;2022-09-09T00:58:09;15.80;99.90
1590;DHT22;788;48.720;9.158;2022-09-09T01:00:42;15.80;99.90
1590;DHT22;788;48.720;9.158;2022-09-09T01:03:20;15.90;99.90
1590;DHT22;788;48.720;9.158;2022-09-09T01:06:00;16.00;99.90
1590;DHT22;788;48.720;9.158;2022-09-09T01:08:40;16.10;99.90
1590;DHT22;788;48.720;9.158;2022-09-09T01:11:16;16.10;99.90
1590;DHT22;788;48.720;9.158;2022-09-09T01:13:45;16.20;99.90
1590;DHT22;788;48.720;9.158;2022-09-09T01:16:14;16.20;99.90
1590;DHT22;788;48.720;9.158;2022-09-09T01:18:45;16.30;99.90
1590;DHT22;788;48.720;9.158;2022-09-09T01:21:22;16.30;99.90
1590;DHT22;788;48.720;9.158;2022-09-09T01:24:06;16.30;99.90
1590;DHT22;788;48.720;9.158;2022-09-09T01:26:37;16.20;99.90
1590;DHT22;788;48.720;9.158;2022-09-09T01:29:08;16.30;99.90
1590;DHT22;788;48.720;9.158;2022-09-09T01:31:38;16.30;99.90
1590;DHT22;788;48.720;9.158;2022-09-09T01:34:10;16.30;99.90
1590;DHT22;788;48.720;9.158;2022-09-09T01:36:41;16.30;99.90
1590;DHT22;788;48.720;9.158;2022-09-09T01:39:10;16.30;99.90
1590;DHT22;788;48.720;9.158;2022-09-09T01:41:38;16.30;99.90
1590;DHT22;788;48.720;9.158;2022-09-09T01:44:05;16.30;99.90
1590;DHT22;788;48.720;9.158;2022-09-09T01:46:34;16.30;99.90
1590;DHT22;788;48.720;9.158;2022-09-09T01:49:02;16.30;99.90
1590;DHT22;788;48.720;9.158;2022-09-09T01:51:30;16.30;99.90
1590;DHT22;788;48.720;9.158;2022-09-09T01:53:57;16.30;99.90
1590;DHT22;788;48.720;9.158;2022-09-09T01:56:35;16.30;99.90
1590;DHT22;788;48.720;9.158;2022-09-09T01:59:13;16.20;99.90
1590;DHT22;788;48.720;9.158;2022-09-09T02:01:55;16.20;99.90
1590;DHT22;788;48.720;9.158;2022-09-09T02:04:36;16.10;99.90
1590;DHT22;788;48.720;9.158;2022-09-09T02:07:08;16.10;99.90
1590;DHT22;788;48.720;9.158;2022-09-09T02:09:40;16.10;99.90
1590;DHT22;788;48.720;9.158;2022-09-09T02:12:12;16.00;99.90
1590;DHT22;788;48.720;9.158;2022-09-09T02:14:44;16.00;99.90
1590;DHT22;788;48.720;9.158;2022-09-09T02:17:17;16.00;99.90
1590;DHT22;788;48.720;9.158;2022-09-09T02:19:47;15.90;99.90
1590;DHT22;788;48.720;9.158;2022-09-09T02:22:16;15.90;99.90
1590;DHT22;788;48.720;9.158;2022-09-09T02:24:44;15.90;99.90
1590;DHT22;788;48.720;9.158;2022-09-09T02:27:12;15.80;99.90
1590;DHT22;788;48.720;9.158;2022-09-09T02:29:42;15.80;99.90
1590;DHT22;788;48.720;9.158;2022-09-09T02:32:12;15.80;99.90
1590;DHT22;788;48.720;9.158;2022-09-09T02:38:01;15.60;99.90
1590;DHT22;788;48.720;9.158;2022-09-09T02:40:29;15.30;99.90
1590;DHT22;788;48.720;9.158;2022-09-09T02:42:56;15.20;99.90
1590;DHT22;788;48.720;9.158;2022-09-09T02:45:25;15.20;99.90
1590;DHT22;788;48.720;9.158;2022-09-09T02:48:00;15.20;99.90
1590;DHT22;788;48.720;9.158;2022-09-09T02:50:33;15.30;99.90
1590;DHT22;788;48.720;9.158;2022-09-09T02:53:07;15.20;99.90
1590;DHT22;788;48.720;9.158;2022-09-09T02:55:41;15.20;99.90
1590;DHT22;788;48.720;9.158;2022-09-09T02:58:12;15.20;99.90
1590;DHT22;788;48.720;9.158;2022-09-09T03:00:44;15.20;99.90
1590;DHT22;788;48.720;9.158;2022-09-09T03:03:12;15.20;99.90
1590;DHT22;788;48.720;9.158;2022-09-09T03:05:38;15.20;99.90
1590;DHT22;788;48.720;9.158;2022-09-09T03:08:06;15.10;99.90
1590;DHT22;788;48.720;9.158;2022-09-09T03:10:33;15.20;99.90
1590;DHT22;788;48.720;9.158;2022-09-09T03:13:00;15.10;99.90
1590;DHT22;788;48.720;9.158;2022-09-09T03:15:28;15.10;99.90
1590;DHT22;788;48.720;9.158;2022-09-09T03:17:58;15.10;99.90
1590;DHT22;788;48.720;9.158;2022-09-09T03:20:25;15.10;99.90
1590;DHT22;788;48.720;9.158;2022-09-09T03:22:52;15.10;99.90
1590;DHT22;788;48.720;9.158;2022-09-09T03:25:20;15.10;99.90
1590;DHT22;788;48.720;9.158;2022-09-09T03:27:49;15.20;99.90
1590;DHT22;788;48.720;9.158;2022-09-09T03:30:18;15.10;99.90
1590;DHT22;788;48.720;9.158;2022-09-09T03:32:45;15.20;99.90
1590;DHT22;788;48.720;9.158;2022-09-09T03:35:13;15.10;99.90
1590;DHT22;788;48.720;9.158;2022-09-09T03:37:40;15.20;99.90
1590;DHT22;788;48.720;9.158;2022-09-09T03:40:08;15.10;99.90
1590;DHT22;788;48.720;9.158;2022-09-09T03:42:36;15.10;99.90
1590;DHT22;788;48.720;9.158;2022-09-09T03:45:03;15.10;99.90
1590;DHT22;788;48.720;9.158;2022-09-09T03:47:30;15.10;99.90
1590;DHT22;788;48.720;9.158;2022-09-09T03:49:57;15.10;99.90
1590;DHT22;788;48.720;9.158;2022-09-09T03:52:25;15.10;99.90
1590;DHT22;788;48.720;9.158;2022-09-09T03:54:52;15.10;99.90
1590;DHT22;788;48.720;9.158;2022-09-09T03:57:19;15.10;99.90
1590;DHT22;788;48.720;9.158;2022-09-09T03:59:47;15.10;99.90
1590;DHT22;788;48.720;9.158;2022-09-09T04:02:13;15.10;99.90
1590;DHT22;788;48.720;9.158;2022-09-09T04:04:40;15.10;99.90
1590;DHT22;788;48.720;9.158;2022-09-09T04:07:07;15.00;99.90
1590;DHT22;788;48.720;9.158;2022-09-09T04:09:35;15.00;99.90
1590;DHT22;788;48.720;9.158;2022-09-09T04:12:02;15.00;99.90
1590;DHT22;788;48.720;9.158;2022-09-09T04:14:29;15.00;99.90
1590;DHT22;788;48.720;9.158;2022-09-09T04:16:56;15.00;99.90
1590;DHT22;788;48.720;9.158;2022-09-09T04:19:25;15.00;99.90
1590;DHT22;788;48.720;9.158;2022-09-09T04:21:51;14.90;99.90
1590;DHT22;788;48.720;9.158;2022-09-09T04:24:18;14.90;99.90
1590;DHT22;788;48.720;9.158;2022-09-09T04:26:46;14.90;99.90
1590;DHT22;788;48.720;9.158;2022-09-09T04:29:13;14.90;99.90
1590;DHT22;788;48.720;9.158;2022-09-09T04:31:40;15.00;99.90
1590;DHT22;788;48.720;9.158;2022-09-09T04:34:07;15.00;99.90
1590;DHT22;788;48.720;9.158;2022-09-09T04:36:34;15.10;99.90
1590;DHT22;788;48.720;9.158;2022-09-09T04:39:01;15.10;99.90
1590;DHT22;788;48.720;9.158;2022-09-09T04:41:28;15.10;99.90
1590;DHT22;788;48.720;9.158;2022-09-09T04:43:58;15.10;99.90
1590;DHT22;788;48.720;9.158;2022-09-09T04:46:26;15.10;99.90
1590;DHT22;788;48.720;9.158;2022-09-09T04:48:53;15.20;99.90
1590;DHT22;788;48.720;9.158;2022-09-09T04:51:20;15.20;99.90
1590;DHT22;788;48.720;9.158;2022-09-09T04:53:46;15.30;99.90
1590;DHT22;788;48.720;9.158;2022-09-09T04:56:16;15.30;99.90
1590;DHT22;788;48.720;9.158;2022-09-09T04:58:43;15.20;99.90
1590;DHT22;788;48.720;9.158;2022-09-09T05:01:13;15.20;99.90
1590;DHT22;788;48.720;9.158;2022-09-09T05:03:41;15.20;99.90
1590;DHT22;788;48.720;9.158;2022-09-09T05:06:10;15.20;99.90
1590;DHT22;788;48.720;9.158;2022-09-09T05:08:37;15.30;99.90
1590;DHT22;788;48.720;9.158;2022-09-09T05:11:15;15.20;99.90
1590;DHT22;788;48.720;9.158;2022-09-09T05:13:43;15.10;99.90
1590;DHT22;788;48.720;9.158;2022-09-09T05:16:09;15.20;99.90
1590;DHT22;788;48.720;9.158;2022-09-09T05:18:38;15.20;99.90
1590;DHT22;788;48.720;9.158;2022-09-09T05:21:06;15.20;99.90
1590;DHT22;788;48.720;9.158;2022-09-09T05:23:32;15.20;99.90
1590;DHT22;788;48.720;9.158;2022-09-09T05:25:59;15.30;99.90
1590;DHT22;788;48.720;9.158;2022-09-09T05:28:27;15.30;99.90
1590;DHT22;788;48.720;9.158;2022-09-09T05:30:58;15.20;99.90
1590;DHT22;788;48.720;9.158;2022-09-09T05:33:26;15.40;99.90
1590;DHT22;788;48.720;9.158;2022-09-09T05:35:59;15.50;99.90
1590;DHT22;788;48.720;9.158;2022-09-09T05:38:27;15.60;99.90
1590;DHT22;788;48.720;9.158;2022-09-09T05:40:54;15.50;99.90
1590;DHT22;788;48.720;9.158;2022-09-09T05:43:22;15.50;99.90
1590;DHT22;788;48.720;9.158;2022-09-09T05:45:59;15.60;99.90
1590;DHT22;788;48.720;9.158;2022-09-09T05:48:28;15.60;99.90
1590;DHT22;788;48.720;9.158;2022-09-09T05:50:55;15.70;99.90
1590;DHT22;788;48.720;9.158;2022-09-09T05:53:23;15.80;99.90
1590;DHT22;788;48.720;9.158;2022-09-09T05:55:50;15.90;99.90
1590;DHT22;788;48.720;9.158;2022-09-09T05:58:18;15.90;99.90
1590;DHT22;788;48.720;9.158;2022-09-09T06:00:44;15.90;99.90
1590;DHT22;788;48.720;9.158;2022-09-09T06:03:11;16.00;99.90
1590;DHT22;788;48.720;9.158;2022-09-09T06:05:38;16.00;99.90
1590;DHT22;788;48.720;9.158;2022-09-09T06:08:05;16.00;99.90
1590;DHT22;788;48.720;9.158;2022-09-09T06:10:34;16.00;99.90
1590;DHT22;788;48.720;9.158;2022-09-09T06:13:01;16.10;99.90
1590;DHT22;788;48.720;9.158;2022-09-09T06:15:28;16.10;99.90
1590;DHT22;788;48.720;9.158;2022-09-09T06:17:57;16.20;99.90
1590;DHT22;788;48.720;9.158;2022-09-09T06:20:24;16.30;99.90
1590;DHT22;788;48.720;9.158;2022-09-09T06:22:50;16.30;99.90
1590;DHT22;788;48.720;9.158;2022-09-09T06:25:17;16.40;99.90
1590;DHT22;788;48.720;9.158;2022-09-09T06:27:49;16.30;99.90
1590;DHT22;788;48.720;9.158;2022-09-09T06:30:16;16.50;99.90
1590;DHT22;788;48.720;9.158;2022-09-09T06:32:43;16.40;99.90
1590;DHT22;788;48.720;9.158;2022-09-09T06:35:10;16.50;99.90
1590;DHT22;788;48.720;9.158;2022-09-09T06:37:37;16.50;99.90
1590;DHT22;788;48.720;9.158;2022-09-09T06:40:04;16.60;99.90
1590;DHT22;788;48.720;9.158;2022-09-09T06:44:59;16.70;99.90
1590;DHT22;788;48.720;9.158;2022-09-09T06:47:26;16.80;99.90
1590;DHT22;788;48.720;9.158;2022-09-09T06:49:54;16.90;99.90
1590;DHT22;788;48.720;9.158;2022-09-09T06:52:21;16.90;99.90
1590;DHT22;788;48.720;9.158;2022-09-09T06:54:50;17.00;99.90
1590;DHT22;788;48.720;9.158;2022-09-09T06:57:16;17.00;99.90
1590;DHT22;788;48.720;9.158;2022-09-09T06:59:43;17.20;99.90
1590;DHT22;788;48.720;9.158;2022-09-09T07:02:11;17.30;99.90
1590;DHT22;788;48.720;9.158;2022-09-09T07:04:38;17.50;99.90
1590;DHT22;788;48.720;9.158;2022-09-09T07:07:05;17.50;99.90
1590;DHT22;788;48.720;9.158;2022-09-09T07:09:31;17.70;99.90
1590;DHT22;788;48.720;9.158;2022-09-09T07:11:58;17.70;99.90
1590;DHT22;788;48.720;9.158;2022-09-09T07:14:25;17.80;99.90
1590;DHT22;788;48.720;9.158;2022-09-09T07:16:53;17.90;99.90
1590;DHT22;788;48.720;9.158;2022-09-09T07:19:21;17.90;99.90
1590;DHT22;788;48.720;9.158;2022-09-09T07:21:47;18.10;99.90
1590;DHT22;788;48.720;9.158;2022-09-09T07:24:14;18.20;99.90
1590;DHT22;788;48.720;9.158;2022-09-09T07:26:41;18.30;99.90
1590;DHT22;788;48.720;9.158;2022-09-09T07:29:09;18.40;99.90
1590;DHT22;788;48.720;9.158;2022-09-09T07:31:39;18.40;99.90
1590;DHT22;788;48.720;9.158;2022-09-09T07:34:06;18.40;99.90
1590;DHT22;788;48.720;9.158;2022-09-09T07:36:36;18.40;99.90
1590;DHT22;788;48.720;9.158;2022-09-09T07:39:04;18.40;99.90
1590;DHT22;788;48.720;9.158;2022-09-09T07:41:34;18.40;99.90
1590;DHT22;788;48.720;9.158;2022-09-09T07:44:05;18.50;99.90
1590;DHT22;788;48.720;9.158;2022-09-09T07:46:32;18.40;99.90
1590;DHT22;788;48.720;9.158;2022-09-09T07:48:59;18.40;99.90
1590;DHT22;788;48.720;9.158;2022-09-09T07:51:28;18.40;99.90
1590;DHT22;788;48.720;9.158;2022-09-09T07:53:58;18.40;99.90
1590;DHT22;788;48.720;9.158;2022-09-09T07:56:26;18.50;99.90
1590;DHT22;788;48.720;9.158;2022-09-09T07:58:55;18.60;99.90
1590;DHT22;788;48.720;9.158;2022-09-09T08:01:24;18.50;99.90
1590;DHT22;788;48.720;9.158;2022-09-09T08:03:56;18.60;99.90
1590;DHT22;788;48.720;9.158;2022-09-09T08:06:25;18.70;99.90
1590;DHT22;788;48.720;9.158;2022-09-09T08:08:52;18.70;99.90
1590;DHT22;788;48.720;9.158;2022-09-09T08:11:24;18.60;99.90
1590;DHT22;788;48.720;9.158;2022-09-09T08:13:52;18.70;99.90
1590;DHT22;788;48.720;9.158;2022-09-09T08:16:20;18.80;99.90
1590;DHT22;788;48.720;9.158;2022-09-09T08:18:48;18.90;99.90
1590;DHT22;788;48.720;9.158;2022-09-09T08:21:16;18.90;99.90
1590;DHT22;788;48.720;9.158;2022-09-09T08:23:48;19.10;99.90
1590;DHT22;788;48.720;9.158;2022-09-09T08:26:18;19.10;99.90
1590;DHT22;788;48.720;9.158;2022-09-09T08:28:49;19.20;99.90
1590;DHT22;788;48.720;9.158;2022-09-09T08:31:19;19.20;99.90
1590;DHT22;788;48.720;9.158;2022-09-09T08:33:46;19.20;99.90
1590;DHT22;788;48.720;9.158;2022-09-09T08:36:15;19.30;99.90
1590;DHT22;788;48.720;9.158;2022-09-09T08:38:42;19.40;99.90
1590;DHT22;788;48.720;9.158;2022-09-09T08:44:10;19.60;99.90
1590;DHT22;788;48.720;9.158;2022-09-09T08:46:46;19.70;99.90
1590;DHT22;788;48.720;9.158;2022-09-09T08:49:34;19.80;99.90
1590;DHT22;788;48.720;9.158;2022-09-09T08:52:09;19.90;99.90
1590;DHT22;788;48.720;9.158;2022-09-09T08:54:41;19.90;99.90
1590;DHT22;788;48.720;9.158;2022-09-09T08:57:17;20.00;99.90
1590;DHT22;788;48.720;9.158;2022-09-09T08:59:47;20.10;99.90
1590;DHT22;788;48.720;9.158;2022-09-09T09:02:19;20.20;99.90
1590;DHT22;788;48.720;9.158;2022-09-09T09:05:06;20.40;99.90
1590;DHT22;788;48.720;9.158;2022-09-09T09:07:45;20.60;99.80
1590;DHT22;788;48.720;9.158;2022-09-09T09:10:26;20.70;99.30
1590;DHT22;788;48.720;9.158;2022-09-09T09:12:58;21.00;98.50
1590;DHT22;788;48.720;9.158;2022-09-09T09:15:33;21.20;98.90
1590;DHT22;788;48.720;9.158;2022-09-09T09:18:02;21.40;97.90
1590;DHT22;788;48.720;9.158;2022-09-09T09:20:35;21.30;97.60
1590;DHT22;788;48.720;9.158;2022-09-09T09:23:12;21.00;99.50
1590;DHT22;788;48.720;9.158;2022-09-09T09:25:43;20.50;99.90
1590;DHT22;788;48.720;9.158;2022-09-09T09:28:13;19.80;99.90
1590;DHT22;788;48.720;9.158;2022-09-09T09:30:48;19.00;99.90
1590;DHT22;788;48.720;9.158;2022-09-09T09:33:21;18.60;99.90
1590;DHT22;788;48.720;9.158;2022-09-09T09:35:50;17.80;99.90
1590;DHT22;788;48.720;9.158;2022-09-09T09:38:18;17.60;99.90
1590;DHT22;788;48.720;9.158;2022-09-09T09:40:50;17.20;99.90
1590;DHT22;788;48.720;9.158;2022-09-09T09:43:21;17.10;99.90
1590;DHT22;788;48.720;9.158;2022-09-09T09:45:51;16.90;99.90
1590;DHT22;788;48.720;9.158;2022-09-09T09:48:18;16.90;99.90
1590;DHT22;788;48.720;9.158;2022-09-09T09:50:50;16.90;99.90
1590;DHT22;788;48.720;9.158;2022-09-09T09:53:21;16.90;99.90
1590;DHT22;788;48.720;9.158;2022-09-09T09:55:53;17.00;99.90
1590;DHT22;788;48.720;9.158;2022-09-09T09:58:20;17.10;99.90
1590;DHT22;788;48.720;9.158;2022-09-09T10:00:48;17.20;99.90
1590;DHT22;788;48.720;9.158;2022-09-09T10:03:24;17.30;99.90
1590;DHT22;788;48.720;9.158;2022-09-09T10:05:53;17.30;99.90
1590;DHT22;788;48.720;9.158;2022-09-09T10:08:23;17.40;99.90
1590;DHT22;788;48.720;9.158;2022-09-09T10:11:02;17.60;99.90
1590;DHT22;788;48.720;9.158;2022-09-09T10:13:37;17.90;99.90
1590;DHT22;788;48.720;9.158;2022-09-09T10:16:15;18.20;99.90
1590;DHT22;788;48.720;9.158;2022-09-09T10:18:57;18.40;99.90
1590;DHT22;788;48.720;9.158;2022-09-09T10:21:35;18.60;99.90
1590;DHT22;788;48.720;9.158;2022-09-09T10:24:17;19.00;99.90
1590;DHT22;788;48.720;9.158;2022-09-09T10:26:54;19.30;99.90
1590;DHT22;788;48.720;9.158;2022-09-09T10:29:44;19.60;99.90
1590;DHT22;788;48.720;9.158;2022-09-09T10:32:33;19.80;99.90
1590;DHT22;788;48.720;9.158;2022-09-09T10:35:21;20.10;99.90
1590;DHT22;788;48.720;9.158;2022-09-09T10:38:11;20.30;99.90
1590;DHT22;788;48.720;9.158;2022-09-09T10:40:46;20.60;99.90
1590;DHT22;788;48.720;9.158;2022-09-09T10:43:25;21.00;99.90
1590;DHT22;788;48.720;9.158;2022-09-09T10:46:04;21.40;99.90
1590;DHT22;788;48.720;9.158;2022-09-09T10:48:44;21.60;99.90
1590;DHT22;788;48.720;9.158;2022-09-09T10:51:23;21.70;99.90
1590;DHT22;788;48.720;9.158;2022-09-09T10:54:04;21.90;99.90
1590;DHT22;788;48.720;9.158;2022-09-09T10:56:34;21.70;99.90
1590;DHT22;788;48.720;9.158;2022-09-09T10:59:05;21.70;99.90
1590;DHT22;788;48.720;9.158;2022-09-09T11:01:37;21.90;99.90
1590;DHT22;788;48.720;9.158;2022-09-09T11:04:12;22.10;99.90
1590;DHT22;788;48.720;9.158;2022-09-09T11:06:44;22.10;99.90
1590;DHT22;788;48.720;9.158;2022-09-09T11:09:16;22.30;99.90
1590;DHT22;788;48.720;9.158;2022-09-09T11:11:47;22.30;99.90
1590;DHT22;788;48.720;9.158;2022-09-09T11:14:21;22.30;99.90
1590;DHT22;788;48.720;9.158;2022-09-09T11:16:53;22.30;99.90
1590;DHT22;788;48.720;9.158;2022-09-09T11:19:26;22.20;99.90
1590;DHT22;788;48.720;9.158;2022-09-09T11:21:55;21.90;99.70
1590;DHT22;788;48.720;9.158;2022-09-09T11:24:28;21.80;99.90
1590;DHT22;788;48.720;9.158;2022-09-09T11:27:01;21.30;99.90
1590;DHT22;788;48.720;9.158;2022-09-09T11:29:45;21.00;98.40
1590;DHT22;788;48.720;9.158;2022-09-09T11:32:30;20.50;97.70
1590;DHT22;788;48.720;9.158;2022-09-09T11:35:07;20.10;98.50
1590;DHT22;788;48.720;9.158;2022-09-09T11:37:50;20.00;99.50
1590;DHT22;788;48.720;9.158;2022-09-09T11:40:22;20.00;99.50
1590;DHT22;788;48.720;9.158;2022-09-09T11:43:01;19.90;98.60
1590;DHT22;788;48.720;9.158;2022-09-09T11:45:30;19.40;98.50
1590;DHT22;788;48.720;9.158;2022-09-09T11:48:02;19.40;99.90
1590;DHT22;788;48.720;9.158;2022-09-09T11:50:33;19.40;99.50
1590;DHT22;788;48.720;9.158;2022-09-09T11:53:21;19.40;99.30
1590;DHT22;788;48.720;9.158;2022-09-09T11:56:04;19.60;99.90
1590;DHT22;788;48.720;9.158;2022-09-09T11:58:38;20.10;99.90
1590;DHT22;788;48.720;9.158;2022-09-09T12:01:26;20.90;98.90
1590;DHT22;788;48.720;9.158;2022-09-09T12:04:06;21.60;97.80
1590;DHT22;788;48.720;9.158;2022-09-09T12:06:43;21.80;95.80
1590;DHT22;788;48.720;9.158;2022-09-09T12:09:22;21.70;95.20
1590;DHT22;788;48.720;9.158;2022-09-09T12:11:50;21.50;94.80
1590;DHT22;788;48.720;9.158;2022-09-09T12:14:21;21.50;97.80
1590;DHT22;788;48.720;9.158;2022-09-09T12:16:48;22.10;96.80
1590;DHT22;788;48.720;9.158;2022-09-09T12:19:19;22.50;96.90
1590;DHT22;788;48.720;9.158;2022-09-09T12:21:51;23.00;98.80
1590;DHT22;788;48.720;9.158;2022-09-09T12:24:27;23.70;94.70
1590;DHT22;788;48.720;9.158;2022-09-09T12:26:59;24.40;96.20
1590;DHT22;788;48.720;9.158;2022-09-09T12:29:36;25.20;94.10
1590;DHT22;788;48.720;9.158;2022-09-09T12:32:08;26.10;93.70
1590;DHT22;788;48.720;9.158;2022-09-09T12:34:40;26.30;86.20
1590;DHT22;788;48.720;9.158;2022-09-09T12:37:15;26.20;83.40
1590;DHT22;788;48.720;9.158;2022-09-09T12:39:49;26.00;79.60
1590;DHT22;788;48.720;9.158;2022-09-09T12:42:18;26.10;80.10
1590;DHT22;788;48.720;9.158;2022-09-09T12:44:52;26.20;78.90
1590;DHT22;788;48.720;9.158;2022-09-09T12:47:20;25.80;77.40
1590;DHT22;788;48.720;9.158;2022-09-09T12:49:48;25.50;76.90
1590;DHT22;788;48.720;9.158;2022-09-09T12:52:21;25.00;77.90
1590;DHT22;788;48.720;9.158;2022-09-09T12:54:51;24.60;80.70
1590;DHT22;788;48.720;9.158;2022-09-09T12:57:20;24.40;81.40
1590;DHT22;788;48.720;9.158;2022-09-09T12:59:48;24.60;81.30
1590;DHT22;788;48.720;9.158;2022-09-09T13:02:20;25.20;80.80
1590;DHT22;788;48.720;9.158;2022-09-09T13:04:48;25.20;77.70
1590;DHT22;788;48.720;9.158;2022-09-09T13:07:16;25.10;79.40
1590;DHT22;788;48.720;9.158;2022-09-09T13:09:43;24.60;79.00
1590;DHT22;788;48.720;9.158;2022-09-09T13:12:15;24.50;79.10
1590;DHT22;788;48.720;9.158;2022-09-09T13:14:45;24.00;77.60
1590;DHT22;788;48.720;9.158;2022-09-09T13:17:20;23.90;79.70
1590;DHT22;788;48.720;9.158;2022-09-09T13:19:48;23.70;78.90
1590;DHT22;788;48.720;9.158;2022-09-09T13:22:21;23.90;79.10
1590;DHT22;788;48.720;9.158;2022-09-09T13:24:59;24.70;78.20
1590;DHT22;788;48.720;9.158;2022-09-09T13:27:31;25.50;77.40
1590;DHT22;788;48.720;9.158;2022-09-09T13:29:59;26.20;74.30
1590;DHT22;788;48.720;9.158;2022-09-09T13:32:27;26.80;71.80
1590;DHT22;788;48.720;9.158;2022-09-09T13:34:56;27.20;67.40
1590;DHT22;788;48.720;9.158;2022-09-09T13:37:26;27.60;64.70
1590;DHT22;788;48.720;9.158;2022-09-09T13:39:54;26.70;64.10
1590;DHT22;788;48.720;9.158;2022-09-09T13:42:26;26.40;67.30
1590;DHT22;788;48.720;9.158;2022-09-09T13:44:55;26.10;68.50
1590;DHT22;788;48.720;9.158;2022-09-09T13:47:29;25.50;68.10
1590;DHT22;788;48.720;9.158;2022-09-09T13:49:56;25.10;70.50
1590;DHT22;788;48.720;9.158;2022-09-09T13:52:23;25.20;71.10
1590;DHT22;788;48.720;9.158;2022-09-09T13:54:52;25.70;69.70
1590;DHT22;788;48.720;9.158;2022-09-09T13:57:21;25.80;70.10
1590;DHT22;788;48.720;9.158;2022-09-09T13:59:48;25.20;69.00
1590;DHT22;788;48.720;9.158;2022-09-09T14:02:16;24.60;70.00
1590;DHT22;788;48.720;9.158;2022-09-09T14:04:44;24.70;70.90
1590;DHT22;788;48.720;9.158;2022-09-09T14:07:12;24.70;70.80
1590;DHT22;788;48.720;9.158;2022-09-09T14:09:40;24.90;71.20
1590;DHT22;788;48.720;9.158;2022-09-09T14:12:09;25.10;71.40
1590;DHT22;788;48.720;9.158;2022-09-09T14:14:37;25.40;68.00
1590;DHT22;788;48.720;9.158;2022-09-09T14:17:04;25.70;65.60
1590;DHT22;788;48.720;9.158;2022-09-09T14:19:33;25.90;64.70
1590;DHT22;788;48.720;9.158;2022-09-09T14:22:00;26.30;63.50
1590;DHT22;788;48.720;9.158;2022-09-09T14:24:27;26.70;62.50
1590;DHT22;788;48.720;9.158;2022-09-09T14:26:54;27.10;61.10
1590;DHT22;788;48.720;9.158;2022-09-09T14:29:21;27.20;59.40
1590;DHT22;788;48.720;9.158;2022-09-09T14:31:48;27.60;59.90
1590;DHT22;788;48.720;9.158;2022-09-09T14:34:15;27.40;58.40
1590;DHT22;788;48.720;9.158;2022-09-09T14:36:43;27.30;58.50
1590;DHT22;788;48.720;9.158;2022-09-09T14:39:10;27.20;58.20
1590;DHT22;788;48.720;9.158;2022-09-09T14:41:37;27.60;59.50
1590;DHT22;788;48.720;9.158;2022-09-09T14:44:04;28.10;57.90
1590;DHT22;788;48.720;9.158;2022-09-09T14:46:31;27.60;54.60
1590;DHT22;788;48.720;9.158;2022-09-09T14:48:58;27.60;54.70
1590;DHT22;788;48.720;9.158;2022-09-09T14:51:25;27.50;55.10
1590;DHT22;788;48.720;9.158;2022-09-09T14:53:57;27.50;56.10
1590;DHT22;788;48.720;9.158;2022-09-09T14:56:26;27.40;55.60
1590;DHT22;788;48.720;9.158;2022-09-09T14:58:54;26.90;55.60
1590;DHT22;788;48.720;9.158;2022-09-09T15:01:21;27.20;56.50
1590;DHT22;788;48.720;9.158;2022-09-09T15:03:49;27.20;55.80
1590;DHT22;788;48.720;9.158;2022-09-09T15:06:17;27.30;55.40
1590;DHT22;788;48.720;9.158;2022-09-09T15:08:45;27.20;55.30
1590;DHT22;788;48.720;9.158;2022-09-09T15:11:14;27.30;56.40
1590;DHT22;788;48.720;9.158;2022-09-09T15:13:42;27.30;55.80
1590;DHT22;788;48.720;9.158;2022-09-09T15:16:11;27.00;56.90
1590;DHT22;788;48.720;9.158;2022-09-09T15:18:38;26.70;57.10
1590;DHT22;788;48.720;9.158;2022-09-09T15:21:08;25.80;57.00
1590;DHT22;788;48.720;9.158;2022-09-09T15:23:35;25.40;58.20
1590;DHT22;788;48.720;9.158;2022-09-09T15:26:03;25.20;59.40
1590;DHT22;788;48.720;9.158;2022-09-09T15:28:33;24.60;60.10
1590;DHT22;788;48.720;9.158;2022-09-09T15:31:06;24.00;62.10
1590;DHT22;788;48.720;9.158;2022-09-09T15:33:33;23.70;63.20
1590;DHT22;788;48.720;9.158;2022-09-09T15:36:12;23.50;64.10
1590;DHT22;788;48.720;9.158;2022-09-09T15:38:39;23.30;64.60
1590;DHT22;788;48.720;9.158;2022-09-09T15:41:06;23.00;64.50
1590;DHT22;788;48.720;9.158;2022-09-09T15:43:34;22.70;66.00
1590;DHT22;788;48.720;9.158;2022-09-09T15:46:22;22.40;66.10
1590;DHT22;788;48.720;9.158;2022-09-09T15:48:51;22.20;67.00
1590;DHT22;788;48.720;9.158;2022-09-09T15:51:18;21.80;66.60
1590;DHT22;788;48.720;9.158;2022-09-09T15:53:45;21.70;67.30
1590;DHT22;788;48.720;9.158;2022-09-09T15:56:13;21.60;67.80
1590;DHT22;788;48.720;9.158;2022-09-09T15:58:41;21.50;68.80
1590;DHT22;788;48.720;9.158;2022-09-09T16:01:10;21.50;68.70
1590;DHT22;788;48.720;9.158;2022-09-09T16:03:39;21.40;68.80
1590;DHT22;788;48.720;9.158;2022-09-09T16:06:06;21.30;69.50
1590;DHT22;788;48.720;9.158;2022-09-09T16:08:34;21.20;70.00
1590;DHT22;788;48.720;9.158;2022-09-09T16:11:06;21.10;70.90
1590;DHT22;788;48.720;9.158;2022-09-09T16:13:35;21.10;71.00
1590;DHT22;788;48.720;9.158;2022-09-09T16:16:04;21.00;72.10
1590;DHT22;788;48.720;9.158;2022-09-09T16:18:41;20.90;72.60
1590;DHT22;788;48.720;9.158;2022-09-09T16:21:13;20.90;73.40
1590;DHT22;788;48.720;9.158;2022-09-09T16:23:40;20.80;73.30
1590;DHT22;788;48.720;9.158;2022-09-09T16:26:08;20.70;73.80
1590;DHT22;788;48.720;9.158;2022-09-09T16:28:34;20.50;74.00
1590;DHT22;788;48.720;9.158;2022-09-09T16:31:05;20.50;75.10
1590;DHT22;788;48.720;9.158;2022-09-09T16:33:32;20.50;74.90
1590;DHT22;788;48.720;9.158;2022-09-09T16:36:05;20.40;75.40
1590;DHT22;788;48.720;9.158;2022-09-09T16:38:32;20.40;76.30
1590;DHT22;788;48.720;9.158;2022-09-09T16:40:59;20.40;76.00
1590;DHT22;788;48.720;9.158;2022-09-09T16:43:26;20.30;77.10
1590;DHT22;788;48.720;9.158;2022-09-09T16:45:53;20.20;78.70
1590;DHT22;788;48.720;9.158;2022-09-09T16:48:21;20.10;80.50